Time;durP1;ratioP1;P1;durP2;ratioP2;P2;SDS_P1;SDS_P2;PMS_P1;PMS_P2;Temp;Humidity;BMP_temperature;BMP_pressure;BME280_temperature;BME280_humidity;BME280_pressure;Samples;Min_cycle;Max_cycle;Signal;HPM_P1;HPM_P2
2023/04/24 00:00:20;;;;;;;1.67;0.50;;;11.20;99.90;;;-144.05;58.29;56887.06;5035939;28;20098;-77
2023/04/24 00:02:47;;;;;;;1.70;0.50;;;11.20;99.90;;;-144.05;58.29;56887.06;5037069;28;20048;-78
2023/04/24 00:05:17;;;;;;;3.60;0.55;;;11.20;99.90;;;-144.05;58.71;56918.94;5019176;28;20413;-76
2023/04/24 00:07:45;;;;;;;0.55;0.32;;;11.20;99.90;;;-144.05;58.53;56904.06;5037986;28;20068;-77
2023/04/24 00:10:12;;;;;;;2.35;0.50;;;11.10;99.90;;;-144.05;59.23;56923.19;5020461;28;20103;-77
2023/04/24 00:12:38;;;;;;;0.80;0.50;;;11.10;99.90;;;-144.05;59.94;56916.81;5038636;28;20025;-77
2023/04/24 00:15:05;;;;;;;0.77;0.40;;;11.00;99.90;;;-144.05;59.89;56908.31;5038605;28;20034;-78
2023/04/24 00:17:31;;;;;;;2.72;0.60;;;10.90;99.90;;;-144.05;60.06;56923.19;5020230;28;20064;-76
2023/04/24 00:20:04;;;;;;;1.45;0.40;;;10.90;99.90;;;-144.05;60.18;56921.06;5038049;28;20037;-76
2023/04/24 00:22:31;;;;;;;0.70;0.45;;;10.80;99.90;;;-144.05;60.19;56929.53;5020544;28;20088;-77
2023/04/24 00:24:57;;;;;;;2.10;0.85;;;10.70;99.90;;;-144.05;60.53;56912.56;5023997;28;20033;-76
2023/04/24 00:27:24;;;;;;;1.63;0.85;;;10.70;99.90;;;-144.05;60.36;56923.19;5037207;28;20379;-78
2023/04/24 00:29:49;;;;;;;1.55;0.95;;;10.70;99.90;;;-144.05;60.55;56912.56;5036471;28;20121;-78
2023/04/24 00:32:15;;;;;;;1.45;0.80;;;10.80;99.90;;;-144.05;59.62;56925.28;5040223;28;20037;-78
2023/04/24 00:34:42;;;;;;;1.48;0.60;;;10.70;99.90;;;-144.05;59.91;56912.56;5038908;28;20034;-78
2023/04/24 00:37:08;;;;;;;1.20;0.80;;;10.70;99.90;;;-144.05;60.21;56912.56;5038627;28;20025;-78
2023/04/24 00:39:34;;;;;;;2.25;0.80;;;10.70;99.90;;;-144.05;59.85;56921.06;5038597;28;20403;-78
2023/04/24 00:42:01;;;;;;;1.83;1.00;;;10.60;99.90;;;-144.05;60.37;56914.69;5020190;28;20473;-77
2023/04/24 00:44:28;;;;;;;0.98;0.70;;;10.50;99.90;;;-144.05;60.21;56908.31;5019564;28;20421;-78
2023/04/24 00:46:55;;;;;;;1.58;0.93;;;10.60;99.90;;;-144.05;60.43;56882.81;5037295;28;20377;-76
2023/04/24 00:49:22;;;;;;;2.45;1.10;;;10.50;99.90;;;-144.05;60.35;56929.53;5019031;28;20045;-78
2023/04/24 00:51:49;;;;;;;2.65;0.95;;;10.50;99.90;;;-144.05;60.23;56912.56;5037774;28;20036;-77
2023/04/24 00:54:16;;;;;;;2.63;0.95;;;10.50;99.90;;;-144.05;60.52;56893.44;5037374;28;20022;-77
2023/04/24 00:56:44;;;;;;;2.30;0.75;;;10.50;99.90;;;-144.05;60.73;56899.81;5036516;28;20022;-77
2023/04/24 00:59:13;;;;;;;1.98;0.80;;;10.40;99.90;;;-144.05;60.82;56938.03;5035974;28;20113;-76
2023/04/24 01:01:43;;;;;;;1.10;0.75;;;10.40;99.90;;;-144.05;60.89;56925.28;5019013;28;20033;-77
2023/04/24 01:04:14;;;;;;;2.20;1.10;;;10.40;99.90;;;-144.05;60.86;56918.94;5036419;28;20036;-77
2023/04/24 01:06:43;;;;;;;2.92;1.25;;;10.30;99.90;;;-144.05;61.36;56927.41;5034874;28;20036;-77
2023/04/24 01:09:14;;;;;;;1.33;0.95;;;10.30;99.90;;;-144.05;61.43;56927.41;5035342;28;20122;-76
2023/04/24 01:11:42;;;;;;;2.05;1.17;;;10.40;99.90;;;-144.05;61.04;56916.81;5035161;28;20095;-77
2023/04/24 01:14:09;;;;;;;1.90;1.30;;;10.40;99.90;;;-144.05;60.87;56912.56;5035509;28;20482;-76
2023/04/24 01:16:38;;;;;;;3.28;1.10;;;10.40;99.90;;;-144.05;60.13;56916.81;5035567;28;20489;-77
2023/04/24 01:19:06;;;;;;;2.20;1.02;;;10.30;99.90;;;-144.05;59.50;56908.31;5035594;28;20021;-78
2023/04/24 01:21:37;;;;;;;3.17;1.10;;;10.30;99.90;;;-144.05;59.23;56918.94;5035613;28;20029;-77
2023/04/24 01:24:06;;;;;;;2.33;1.10;;;10.30;99.90;;;-144.05;58.60;56918.94;5035941;28;20115;-76
2023/04/24 01:26:32;;;;;;;2.40;1.35;;;10.30;99.90;;;-144.05;58.21;56914.69;5035395;28;20393;-77
2023/04/24 01:28:58;;;;;;;1.48;1.08;;;10.40;99.90;;;-144.05;56.76;56944.41;5017266;28;20032;-77
2023/04/24 01:31:24;;;;;;;3.05;1.17;;;10.40;99.90;;;-144.05;56.33;56901.94;5017047;28;20033;-77
2023/04/24 01:33:53;;;;;;;1.77;1.00;;;10.50;99.90;;;-144.05;55.82;56910.44;5034769;28;20021;-77
2023/04/24 01:36:21;;;;;;;2.45;1.23;;;10.50;99.90;;;-144.05;55.13;56914.69;5017200;28;20405;-78
2023/04/24 01:38:47;;;;;;;1.92;1.40;;;10.50;99.90;;;-144.05;54.68;56938.03;5034099;28;20029;-78
2023/04/24 01:41:13;;;;;;;2.03;1.00;;;10.50;99.90;;;-144.05;54.90;56918.94;5035194;28;20030;-78
2023/04/24 01:43:39;;;;;;;1.95;1.10;;;10.50;99.90;;;-144.05;54.44;56904.06;5033789;28;20059;-76
2023/04/24 01:46:06;;;;;;;1.95;1.30;;;10.50;99.90;;;-144.05;54.20;56933.78;5035193;28;20511;-77
2023/04/24 01:48:33;;;;;;;2.58;1.20;;;10.50;99.90;;;-144.05;54.73;56889.19;5035258;28;20033;-77
2023/04/24 01:50:59;;;;;;;1.50;1.02;;;10.50;99.90;;;-144.05;55.17;56908.31;5017620;28;20026;-77
2023/04/24 01:53:25;;;;;;;2.38;1.05;;;10.40;99.90;;;-144.05;54.52;56918.94;5034994;28;20025;-78
2023/04/24 01:55:51;;;;;;;2.40;1.30;;;10.40;99.90;;;-144.05;54.80;56912.56;5035555;28;20485;-78
2023/04/24 01:58:17;;;;;;;3.63;1.90;;;10.40;99.90;;;-144.05;55.81;56912.56;5017275;28;20025;-76
2023/04/24 02:00:43;;;;;;;2.55;1.58;;;10.40;99.90;;;-144.05;55.51;56908.31;5017855;28;20531;-77
2023/04/24 02:03:08;;;;;;;2.65;1.10;;;10.30;99.90;;;-144.05;56.17;56908.31;5035030;28;20455;-76
2023/04/24 02:05:34;;;;;;;3.00;1.40;;;10.30;99.90;;;-144.05;55.87;56906.19;5017475;28;20083;-77
2023/04/24 02:08:00;;;;;;;2.97;1.55;;;10.20;99.90;;;-144.05;56.11;56923.19;5020581;28;20052;-77
2023/04/24 02:10:26;;;;;;;4.22;1.23;;;10.20;99.90;;;-144.05;56.91;56889.19;5037133;28;20044;-77
2023/04/24 02:12:52;;;;;;;2.17;1.40;;;10.10;99.90;;;-144.05;56.61;56927.41;5035488;28;20430;-77
2023/04/24 02:15:18;;;;;;;1.45;1.30;;;10.10;99.90;;;-144.05;56.93;56887.06;5035746;28;20033;-78
2023/04/24 02:17:44;;;;;;;2.45;1.50;;;10.10;99.90;;;-144.05;57.11;56906.19;5035675;28;20033;-77
2023/04/24 02:20:10;;;;;;;2.72;1.50;;;10.10;99.90;;;-144.05;57.49;56925.28;5035733;28;20037;-77
2023/04/24 02:22:36;;;;;;;2.88;1.35;;;10.10;99.90;;;-144.05;57.75;56925.28;5035473;28;20064;-77
2023/04/24 02:25:03;;;;;;;3.35;1.73;;;10.10;99.90;;;-144.05;58.00;56918.94;5035273;28;20508;-78
2023/04/24 02:27:29;;;;;;;5.18;2.10;;;10.00;99.90;;;-144.05;58.73;56908.31;5034983;28;20025;-77
2023/04/24 02:29:55;;;;;;;4.00;2.08;;;10.00;99.90;;;-144.05;59.07;56912.56;5016894;28;20025;-76
2023/04/24 02:32:21;;;;;;;5.07;2.53;;;9.90;99.90;;;-144.05;59.54;56904.06;5035383;28;20029;-76
2023/04/24 02:34:46;;;;;;;4.53;2.42;;;9.80;99.90;;;-144.05;60.74;56921.06;5034888;28;20025;-77
2023/04/24 02:37:12;;;;;;;4.47;2.50;;;9.70;99.90;;;-144.05;60.92;56914.69;5034494;28;20022;-77
2023/04/24 02:39:38;;;;;;;5.10;2.63;;;9.70;99.90;;;-144.05;60.87;56921.06;5016109;28;20079;-77
2023/04/24 02:42:04;;;;;;;4.43;2.70;;;9.60;99.90;;;-144.05;60.90;56914.69;5033334;28;20064;-78
2023/04/24 02:44:30;;;;;;;3.97;2.88;;;9.50;99.90;;;-144.05;61.73;56921.06;5017473;28;20030;-78
2023/04/24 02:46:56;;;;;;;4.82;3.28;;;9.50;99.90;;;-144.05;61.46;56912.56;5034980;28;20033;-78
2023/04/24 02:49:21;;;;;;;5.43;2.95;;;9.40;99.90;;;-144.05;61.05;56906.19;5033411;28;20041;-76
2023/04/24 02:51:47;;;;;;;4.75;3.58;;;9.30;99.90;;;-144.05;62.26;56916.81;5016860;28;20092;-77
2023/04/24 02:54:13;;;;;;;6.57;3.88;;;9.30;99.90;;;-144.05;62.35;56908.31;5035186;28;20026;-76
2023/04/24 02:56:39;;;;;;;6.45;4.45;;;9.20;99.90;;;-144.05;63.40;56899.81;5016437;28;20421;-77
2023/04/24 02:59:05;;;;;;;8.25;5.05;;;9.20;99.90;;;-144.05;63.85;56933.78;5034738;28;20113;-77
2023/04/24 03:01:31;;;;;;;6.53;5.03;;;9.20;99.90;;;-144.05;63.50;56910.44;5037225;28;20053;-77
2023/04/24 03:03:57;;;;;;;9.38;5.55;;;9.20;99.90;;;-144.05;63.99;56904.06;5036103;28;20453;-78
2023/04/24 03:06:23;;;;;;;11.00;4.68;;;9.20;99.90;;;-144.05;63.86;56904.06;5035885;28;20021;-78
2023/04/24 03:08:49;;;;;;;9.18;5.97;;;9.20;99.90;;;-144.05;64.49;56933.78;5017092;28;20370;-78
2023/04/24 03:11:15;;;;;;;9.85;6.13;;;9.20;99.90;;;-144.05;64.89;56912.56;5035392;28;20037;-77
2023/04/24 03:13:41;;;;;;;8.48;6.20;;;9.20;99.90;;;-144.05;64.28;56925.28;5017028;28;20053;-78
2023/04/24 03:16:06;;;;;;;9.82;6.38;;;9.20;99.90;;;-144.05;64.57;56908.31;5035148;28;20457;-78
2023/04/24 03:18:32;;;;;;;9.40;6.45;;;9.20;99.90;;;-144.05;64.88;56916.81;5034624;28;20040;-77
2023/04/24 03:20:58;;;;;;;10.68;6.45;;;9.20;99.90;;;-144.05;64.76;56925.28;5038163;28;20393;-77
2023/04/24 03:23:24;;;;;;;8.65;6.68;;;9.20;99.90;;;-144.05;64.70;56908.31;5038645;28;20029;-76
2023/04/24 03:25:50;;;;;;;11.73;6.30;;;9.20;99.90;;;-144.05;64.96;56908.31;5037252;28;20501;-77
2023/04/24 03:28:16;;;;;;;11.85;6.47;;;9.30;99.90;;;-144.05;65.05;56938.03;5038458;28;20178;-77
2023/04/24 03:30:41;;;;;;;11.43;7.70;;;9.30;99.90;;;-144.05;65.32;56929.53;5038482;28;20088;-77
2023/04/24 03:33:07;;;;;;;9.27;6.47;;;9.30;99.90;;;-144.05;64.77;56929.53;5021299;28;20522;-77
2023/04/24 03:35:33;;;;;;;13.13;7.22;;;9.30;99.90;;;-144.05;64.58;56897.69;5039351;28;20497;-78
2023/04/24 03:37:59;;;;;;;16.20;7.65;;;9.30;99.90;;;-144.05;64.96;56921.06;5039199;28;20059;-78
2023/04/24 03:40:25;;;;;;;12.10;7.90;;;9.30;99.90;;;-144.05;64.84;56925.28;5038865;28;20477;-77
2023/04/24 03:42:51;;;;;;;11.90;7.93;;;9.30;99.90;;;-144.05;64.89;56904.06;5037826;28;20037;-76
2023/04/24 03:45:17;;;;;;;10.90;8.27;;;9.30;99.90;;;-144.05;65.29;56931.66;5037621;28;20037;-76
2023/04/24 03:47:42;;;;;;;11.98;7.40;;;9.30;99.90;;;-144.05;65.10;56914.69;5037661;28;20119;-77
2023/04/24 03:50:09;;;;;;;13.02;7.80;;;9.30;99.90;;;-144.05;64.41;56904.06;5038494;28;20022;-78
2023/04/24 03:52:35;;;;;;;13.88;7.78;;;9.40;99.90;;;-144.05;65.29;56921.06;5019050;28;20032;-77
2023/04/24 03:55:01;;;;;;;13.95;8.25;;;9.30;99.90;;;-144.05;65.40;56942.28;5037557;28;20033;-76
2023/04/24 03:57:27;;;;;;;16.38;9.20;;;9.40;99.90;;;-144.05;65.04;56925.28;5040301;28;20049;-77
2023/04/24 03:59:53;;;;;;;13.32;10.07;;;9.30;99.90;;;-144.05;65.15;56916.81;5020442;28;20064;-78
2023/04/24 04:02:19;;;;;;;14.73;9.38;;;9.40;99.90;;;-144.05;64.93;56916.81;5037293;28;20078;-77
2023/04/24 04:04:45;;;;;;;15.73;8.63;;;9.40;99.90;;;-144.05;65.06;56901.94;5038788;28;20112;-78
2023/04/24 04:07:11;;;;;;;13.82;9.40;;;9.50;99.90;;;-144.05;65.36;56921.06;5038187;28;20491;-77
2023/04/24 04:09:37;;;;;;;16.63;9.15;;;9.50;99.90;;;-144.05;65.48;56910.44;5038109;28;20116;-78
2023/04/24 04:12:02;;;;;;;17.48;9.35;;;9.40;99.90;;;-144.05;64.91;56955.03;5080398;22;20072;-78
2023/04/24 04:14:28;;;;;;;13.30;9.27;;;9.50;99.90;;;-144.05;64.55;56940.16;5056178;28;20507;-77
2023/04/24 04:16:54;;;;;;;13.98;8.50;;;9.40;99.90;;;-144.05;65.05;56929.53;5055029;28;20476;-77
2023/04/24 04:19:20;;;;;;;16.65;9.50;;;9.40;99.90;;;-144.05;64.72;56906.19;5053470;28;20098;-77
2023/04/24 04:21:50;;;;;;;12.93;8.30;;;9.40;99.90;;;-144.05;64.66;56933.78;5056441;28;20040;-77
2023/04/24 04:24:16;;;;;;;16.25;9.25;;;9.40;99.90;;;-144.05;64.45;56918.94;5055554;28;20041;-76
2023/04/24 04:26:46;;;;;;;16.65;8.90;;;9.50;99.90;;;-144.05;64.29;56946.53;5071719;28;20033;-75
2023/04/24 04:29:13;;;;;;;13.40;8.43;;;9.40;99.90;;;-144.05;64.05;56914.69;5055569;28;20029;-77
2023/04/24 04:31:40;;;;;;;16.13;9.07;;;9.50;99.90;;;-144.05;64.63;56929.53;5070463;28;20537;-78
2023/04/24 04:34:07;;;;;;;18.55;9.57;;;9.40;99.90;;;-144.05;64.35;56910.44;5055758;28;20032;-77
2023/04/24 04:36:36;;;;;;;18.50;8.95;;;9.40;99.90;;;-144.05;64.50;56904.06;5055663;28;20498;-75
2023/04/24 04:39:03;;;;;;;15.13;8.68;;;9.40;99.90;;;-144.05;64.01;56925.28;5054491;28;20494;-77
2023/04/24 04:41:30;;;;;;;14.73;9.13;;;9.40;99.90;;;-144.05;63.80;56910.44;5054614;28;20503;-76
2023/04/24 04:43:58;;;;;;;12.27;9.00;;;9.40;99.90;;;-144.05;64.38;56904.06;5069330;28;20032;-77
2023/04/24 04:46:25;;;;;;;14.63;9.27;;;9.40;99.90;;;-144.05;64.18;56946.53;5053874;28;20024;-77
2023/04/24 04:48:54;;;;;;;14.23;9.82;;;9.40;99.90;;;-144.05;65.06;56935.91;5054019;28;20057;-77
2023/04/24 04:51:20;;;;;;;15.35;9.68;;;9.40;99.90;;;-144.05;64.42;56935.91;5069154;28;20094;-77
2023/04/24 04:53:46;;;;;;;13.90;9.18;;;9.40;99.90;;;-144.05;64.09;56931.66;5055329;28;20024;-78
2023/04/24 04:56:12;;;;;;;15.82;10.00;;;9.40;99.90;;;-144.05;63.79;56931.66;5055979;28;20029;-78
2023/04/24 04:58:37;;;;;;;22.25;10.85;;;9.50;99.90;;;-144.05;64.13;56897.69;5055636;28;20037;-77
2023/04/24 05:01:03;;;;;;;11.70;9.60;;;9.40;99.90;;;-144.05;64.50;56940.16;5069014;28;20353;-77
2023/04/24 05:03:29;;;;;;;14.82;10.02;;;9.50;99.90;;;-144.05;64.58;56933.78;5053831;28;20033;-75
2023/04/24 05:05:55;;;;;;;17.90;10.30;;;9.40;99.90;;;-144.05;64.79;56908.31;5053958;28;20056;-75
2023/04/24 05:08:21;;;;;;;17.45;10.00;;;9.50;99.90;;;-144.05;64.33;56938.03;5053490;28;20109;-75
2023/04/24 05:10:47;;;;;;;14.88;10.40;;;9.50;99.90;;;-144.05;64.19;56908.31;5053859;28;20033;-76
2023/04/24 05:13:12;;;;;;;17.80;9.43;;;9.50;99.90;;;-144.05;64.17;56927.41;5069385;28;20032;-77
2023/04/24 05:15:38;;;;;;;13.95;10.00;;;9.50;99.90;;;-144.05;63.79;56933.78;5054130;28;20455;-75
2023/04/24 05:18:04;;;;;;;14.23;8.98;;;9.50;99.90;;;-144.05;64.43;56923.19;5069494;28;20112;-75
2023/04/24 05:20:30;;;;;;;21.23;10.13;;;9.50;99.90;;;-144.05;64.45;56904.06;5054196;28;20052;-76
2023/04/24 05:22:56;;;;;;;15.55;10.70;;;9.50;99.90;;;-144.05;64.02;56901.94;5068888;28;20033;-75
2023/04/24 05:25:22;;;;;;;14.23;9.60;;;9.50;99.90;;;-144.05;64.09;56916.81;5054054;28;20478;-76
2023/04/24 05:27:48;;;;;;;14.10;9.93;;;9.50;99.90;;;-144.05;63.72;56935.91;5053713;28;20029;-76
2023/04/24 05:30:14;;;;;;;13.25;9.68;;;9.60;99.90;;;-144.05;63.18;56901.94;5053709;28;20558;-76
2023/04/24 05:32:40;;;;;;;16.98;9.23;;;9.60;99.90;;;-144.05;63.48;56918.94;5053556;28;20029;-76
2023/04/24 05:35:06;;;;;;;17.77;8.93;;;9.50;99.90;;;-144.05;62.97;56925.28;5053769;28;20047;-77
2023/04/24 05:37:32;;;;;;;13.35;7.95;;;9.60;99.90;;;-144.05;62.36;56916.81;5052417;28;20039;-77
2023/04/24 05:39:58;;;;;;;16.77;7.82;;;9.70;99.90;;;-144.05;62.33;56921.06;5053142;28;20033;-76
2023/04/24 05:42:24;;;;;;;11.70;8.32;;;9.80;99.90;;;-144.05;61.64;56927.41;5052793;28;20033;-74
2023/04/24 05:44:50;;;;;;;11.20;7.13;;;9.90;99.90;;;-144.05;62.33;56918.94;5052513;28;20029;-77
2023/04/24 05:47:16;;;;;;;12.73;8.10;;;9.80;99.90;;;-144.05;62.31;56925.28;5053405;28;20043;-75
2023/04/24 05:49:42;;;;;;;11.50;7.30;;;9.70;99.90;;;-144.05;63.20;56916.81;5053756;28;20079;-77
2023/04/24 05:52:08;;;;;;;13.57;7.60;;;9.60;99.90;;;-144.05;63.87;56918.94;5053561;28;20253;-77
2023/04/24 05:54:35;;;;;;;14.20;7.63;;;9.60;99.90;;;-144.05;63.74;56906.19;5053373;28;20017;-74
2023/04/24 05:57:04;;;;;;;12.20;7.18;;;9.50;99.90;;;-144.05;64.24;56904.06;5068719;28;20021;-77
2023/04/24 05:59:30;;;;;;;12.98;8.30;;;9.40;99.90;;;-144.05;65.13;56908.31;5052922;28;20412;-75
2023/04/24 06:01:56;;;;;;;12.07;7.75;;;9.40;99.90;;;-144.05;65.24;56916.81;5053298;28;20021;-75
2023/04/24 06:04:22;;;;;;;12.02;6.95;;;9.30;99.90;;;-144.05;66.87;56940.16;5052961;28;20361;-76
2023/04/24 06:06:50;;;;;;;14.30;8.10;;;9.20;99.90;;;-144.05;67.51;56921.06;5067727;28;20376;-75
2023/04/24 06:09:17;;;;;;;15.68;8.27;;;9.20;99.90;;;-144.05;68.03;56921.06;5053067;28;20135;-75
2023/04/24 06:11:43;;;;;;;12.50;7.63;;;9.20;99.90;;;-144.05;68.36;56925.28;5052610;28;20099;-75
2023/04/24 06:14:09;;;;;;;16.45;8.02;;;9.20;99.90;;;-144.05;69.09;56918.94;5053410;28;20481;-76
2023/04/24 06:16:35;;;;;;;11.32;7.72;;;9.10;99.90;;;-144.05;69.25;56914.69;5053250;28;20448;-76
2023/04/24 06:19:01;;;;;;;13.63;7.93;;;9.10;99.90;;;-144.05;69.22;56927.41;5053820;28;20048;-74
2023/04/24 06:21:27;;;;;;;15.68;8.65;;;9.10;99.90;;;-144.05;68.66;56925.28;5053504;28;20039;-77
2023/04/24 06:23:55;;;;;;;11.20;7.93;;;9.10;99.90;;;-144.05;70.03;56908.31;5053190;28;20442;-76
2023/04/24 06:26:22;;;;;;;12.88;8.23;;;9.10;99.90;;;-144.05;69.31;56931.66;5052784;28;20028;-76
2023/04/24 06:28:49;;;;;;;11.23;8.10;;;9.10;99.90;;;-144.05;69.30;56906.19;5053128;28;20040;-77
2023/04/24 06:31:15;;;;;;;12.13;7.70;;;9.10;99.90;;;-144.05;69.00;56916.81;5055775;28;20029;-76
2023/04/24 06:33:41;;;;;;;9.98;7.47;;;9.10;99.90;;;-144.05;68.52;56923.19;5082613;28;20059;-74
2023/04/24 06:36:07;;;;;;;7.80;6.05;;;9.10;99.90;;;-144.05;68.00;56929.53;5085137;28;20033;-75
2023/04/24 06:38:34;;;;;;;8.55;6.38;;;9.20;99.90;;;-144.05;67.91;56904.06;5066574;28;20033;-75
2023/04/24 06:41:00;;;;;;;8.93;6.32;;;9.20;99.90;;;-144.05;67.74;56904.06;5066348;28;20032;-75
2023/04/24 06:43:25;;;;;;;9.57;6.30;;;9.20;99.90;;;-144.05;67.50;56929.53;5057823;28;20036;-77
2023/04/24 06:45:51;;;;;;;8.65;5.20;;;9.20;99.90;;;-144.05;67.14;56923.19;5053254;28;20488;-77
2023/04/24 06:48:17;;;;;;;8.57;6.15;;;9.20;99.90;;;-144.05;67.55;56914.69;5053406;28;20029;-77
2023/04/24 06:50:43;;;;;;;7.15;4.97;;;9.20;99.90;;;-144.05;67.42;56942.28;5052960;28;20484;-77
2023/04/24 06:53:10;;;;;;;10.55;5.40;;;9.20;99.90;;;-144.05;67.54;56906.19;5067661;28;20032;-77
2023/04/24 06:55:36;;;;;;;10.43;4.97;;;9.20;99.90;;;-144.05;67.31;56904.06;5055437;28;20028;-77
2023/04/24 06:58:02;;;;;;;8.57;5.00;;;9.30;99.90;;;-144.05;66.76;56933.78;5056844;28;20033;-76
2023/04/24 07:00:29;;;;;;;6.38;4.78;;;9.40;99.90;;;-144.05;66.70;56912.56;5056343;28;20039;-77
2023/04/24 07:02:56;;;;;;;7.28;5.30;;;9.50;99.90;;;-144.05;66.07;56906.19;5056797;28;20025;-77
2023/04/24 07:05:23;;;;;;;7.57;5.38;;;9.70;99.90;;;-144.05;64.91;56914.69;5056739;28;20040;-77
2023/04/24 07:07:50;;;;;;;8.40;4.57;;;10.00;99.90;;;-144.05;65.14;56916.81;5056154;28;20036;-76
2023/04/24 07:10:16;;;;;;;6.80;4.22;;;10.00;99.90;;;-144.05;64.99;56925.28;5071427;28;20031;-77
2023/04/24 07:12:42;;;;;;;6.88;4.57;;;10.20;99.90;;;-144.05;65.33;56897.69;5057056;28;20120;-77
2023/04/24 07:15:09;;;;;;;4.95;3.80;;;10.10;99.90;;;-144.05;66.59;56908.31;5056479;28;20060;-77
2023/04/24 07:17:35;;;;;;;8.55;5.43;;;9.80;99.90;;;-144.05;67.52;56906.19;5056926;28;20033;-77
2023/04/24 07:20:01;;;;;;;7.13;4.97;;;9.70;99.90;;;-144.05;68.66;56938.03;5056559;28;20082;-76
2023/04/24 07:22:27;;;;;;;7.53;5.28;;;9.50;99.90;;;-144.05;70.32;56925.28;5056665;28;20108;-76
2023/04/24 07:24:52;;;;;;;7.78;5.10;;;9.30;99.90;;;-144.05;70.90;56921.06;5056773;28;20129;-77
2023/04/24 07:27:18;;;;;;;7.60;4.97;;;9.20;99.90;;;-144.05;70.82;56889.19;5072459;28;20492;-77
2023/04/24 07:29:44;;;;;;;7.43;5.15;;;9.20;99.90;;;-144.05;71.07;56931.66;5056314;28;20040;-77
2023/04/24 07:32:10;;;;;;;8.15;5.72;;;9.20;99.90;;;-144.05;71.77;56925.28;5056182;28;20055;-77
2023/04/24 07:34:36;;;;;;;8.80;4.95;;;9.10;99.90;;;-144.05;71.98;56921.06;5055563;28;20478;-76
2023/04/24 07:37:03;;;;;;;6.47;4.90;;;9.10;99.90;;;-144.05;72.38;56925.28;5055762;28;20026;-76
2023/04/24 07:39:29;;;;;;;5.43;3.53;;;9.20;99.90;;;-144.05;71.05;56918.94;5071130;28;20029;-76
2023/04/24 07:41:55;;;;;;;5.68;3.55;;;9.20;99.90;;;-144.05;70.93;56912.56;5056428;28;20036;-75
2023/04/24 07:44:20;;;;;;;4.63;3.50;;;9.10;99.90;;;-144.05;72.02;56901.94;5056067;28;20056;-75
2023/04/24 07:46:47;;;;;;;4.72;3.80;;;9.00;99.90;;;-144.05;72.80;56912.56;5058312;28;20029;-77
2023/04/24 07:49:13;;;;;;;7.95;4.18;;;8.80;99.90;;;-144.05;73.54;56933.78;5057514;28;20087;-74
2023/04/24 07:51:41;;;;;;;7.18;4.15;;;8.70;99.90;;;-144.05;73.97;56918.94;5056652;28;20311;-76
2023/04/24 07:54:07;;;;;;;5.28;3.72;;;8.60;99.90;;;-144.05;73.97;56921.06;5055665;28;20025;-76
2023/04/24 07:56:34;;;;;;;5.50;3.97;;;8.60;99.90;;;-144.05;74.49;56916.81;5055282;28;20029;-75
2023/04/24 07:59:01;;;;;;;4.88;3.13;;;8.50;99.90;;;-144.05;75.25;56925.28;5055253;28;20399;-76
2023/04/24 08:01:27;;;;;;;5.28;3.83;;;8.50;99.90;;;-144.05;75.66;56901.94;5055785;28;20098;-75
2023/04/24 08:03:52;;;;;;;5.00;3.65;;;8.50;99.90;;;-144.05;75.93;56912.56;5055490;28;20032;-77
2023/04/24 08:06:18;;;;;;;4.15;2.60;;;8.60;99.90;;;-144.05;75.11;56916.81;5053881;28;20033;-77
2023/04/24 08:08:44;;;;;;;3.53;2.38;;;8.70;99.90;;;-144.05;72.72;56918.94;5054960;28;20033;-76
2023/04/24 08:11:10;;;;;;;2.63;2.03;;;8.90;99.90;;;-144.05;71.43;56906.19;5054257;28;20060;-76
2023/04/24 08:13:36;;;;;;;4.03;2.20;;;9.00;99.90;;;-144.05;71.34;56918.94;5055393;28;20029;-76
2023/04/24 08:16:02;;;;;;;3.10;1.75;;;9.10;99.90;;;-144.05;70.79;56929.53;5055581;28;20503;-76
2023/04/24 08:18:27;;;;;;;2.20;1.10;;;9.10;99.90;;;-144.05;71.40;56906.19;5070348;28;20568;-75
2023/04/24 08:20:53;;;;;;;1.55;1.15;;;9.00;99.90;;;-144.05;71.17;56916.81;5055019;28;20051;-74
2023/04/24 08:23:19;;;;;;;1.42;1.17;;;8.90;99.90;;;-144.05;71.50;56908.31;5054937;28;20033;-75
2023/04/24 08:25:45;;;;;;;1.23;1.10;;;8.80;99.90;;;-144.05;71.83;56914.69;5054676;28;20025;-75
2023/04/24 08:28:11;;;;;;;2.25;1.13;;;8.80;99.90;;;-144.05;72.34;56921.06;5055093;28;20041;-76
2023/04/24 08:30:38;;;;;;;1.25;0.70;;;8.70;99.90;;;-144.05;72.28;56912.56;5070569;28;20025;-75
2023/04/24 08:33:04;;;;;;;3.85;1.10;;;8.70;99.90;;;-144.05;72.10;56916.81;5054961;28;20087;-77
2023/04/24 08:35:29;;;;;;;0.80;0.75;;;8.70;99.90;;;-144.05;71.72;56931.66;5054931;28;20028;-74
2023/04/24 08:37:55;;;;;;;1.25;1.02;;;8.80;99.90;;;-144.05;72.20;56927.41;5055136;28;20130;-78
2023/04/24 08:40:29;;;;;;;1.08;0.80;;;8.80;99.90;;;-144.05;71.96;56927.41;5054718;28;20480;-75
2023/04/24 08:42:57;;;;;;;2.42;1.33;;;8.90;99.90;;;-144.05;72.76;56916.81;5055141;28;20031;-76
2023/04/24 08:45:24;;;;;;;1.13;0.90;;;8.90;99.90;;;-144.05;72.76;56921.06;5054885;28;20048;-76
2023/04/24 08:47:54;;;;;;;1.27;1.10;;;8.70;99.90;;;-144.05;72.36;56916.81;5054352;28;20039;-77
2023/04/24 08:50:22;;;;;;;1.17;0.80;;;8.70;99.90;;;-144.05;73.06;56927.41;5055053;28;20135;-74
2023/04/24 08:52:53;;;;;;;1.38;0.88;;;8.60;99.90;;;-144.05;73.03;56912.56;5070128;28;20021;-75
2023/04/24 08:55:21;;;;;;;0.50;0.45;;;8.50;99.90;;;-144.05;72.22;56944.41;5054569;28;20044;-75
2023/04/24 08:57:52;;;;;;;1.85;0.40;;;8.40;99.90;;;-144.05;72.90;56925.28;5071781;28;20057;-76
2023/04/24 09:00:21;;;;;;;0.70;0.50;;;8.30;99.90;;;-144.05;73.37;56929.53;5055612;28;20036;-75
2023/04/24 09:02:50;;;;;;;0.75;0.43;;;8.20;99.90;;;-144.05;74.96;56925.28;5054407;28;20061;-76
2023/04/24 09:05:25;;;;;;;0.40;0.40;;;8.20;99.90;;;-144.05;75.15;56912.56;5055113;28;20037;-76
2023/04/24 09:07:57;;;;;;;0.85;0.40;;;8.20;99.90;;;-144.05;75.88;56901.94;5053686;28;20404;-77
2023/04/24 09:10:26;;;;;;;1.48;0.57;;;8.10;99.90;;;-144.05;76.91;56938.03;5054101;28;20120;-76
2023/04/24 09:12:56;;;;;;;1.73;0.75;;;8.00;99.90;;;-144.05;77.87;56925.28;5069601;28;20068;-76
2023/04/24 09:15:23;;;;;;;1.10;0.65;;;7.90;99.90;;;-144.05;78.16;56935.91;5055403;28;20029;-74
2023/04/24 09:17:49;;;;;;;3.05;0.77;;;7.90;99.90;;;-144.05;78.15;56918.94;5053395;28;20029;-76
2023/04/24 09:20:15;;;;;;;1.60;0.90;;;7.90;99.90;;;-144.05;78.69;56901.94;5054284;28;20048;-77
2023/04/24 09:22:44;;;;;;;2.28;1.10;;;7.90;99.90;;;-144.05;79.33;56929.53;5054030;28;20029;-77
2023/04/24 09:25:12;;;;;;;1.75;1.17;;;7.90;99.90;;;-144.05;79.93;56942.28;5056554;28;20421;-76
2023/04/24 09:27:45;;;;;;;1.15;0.98;;;7.90;99.90;;;-144.05;80.31;56910.44;5054058;28;20032;-77
2023/04/24 09:30:11;;;;;;;1.58;1.17;;;7.90;99.90;;;-144.05;80.00;56940.16;5054387;28;20024;-76
2023/04/24 09:32:37;;;;;;;1.25;1.10;;;8.00;99.90;;;-144.05;80.35;56921.06;5056756;28;20025;-78
2023/04/24 09:35:13;;;;;;;3.97;2.40;;;8.00;99.90;;;-144.05;81.17;56933.78;5054944;28;20021;-77
2023/04/24 09:37:45;;;;;;;3.47;2.30;;;8.00;99.90;;;-144.05;80.49;56931.66;5053997;28;20025;-78
2023/04/24 09:40:15;;;;;;;2.60;2.22;;;8.10;99.90;;;-144.05;81.31;56929.53;5070467;28;20056;-78
2023/04/24 09:42:52;;;;;;;2.55;2.22;;;8.20;99.90;;;-144.05;81.37;56918.94;5055778;28;20032;-78
2023/04/24 09:45:18;;;;;;;2.67;2.38;;;8.30;99.90;;;-144.05;81.74;56931.66;5072017;28;20048;-77
2023/04/24 09:47:44;;;;;;;4.38;2.72;;;8.30;99.90;;;-144.05;82.12;56950.78;5055270;28;20025;-78
2023/04/24 09:50:16;;;;;;;3.13;2.40;;;8.40;99.90;;;-144.05;81.43;56901.94;5054657;28;20021;-77
2023/04/24 09:53:04;;;;;;;3.70;2.63;;;8.50;99.90;;;-144.05;81.64;56946.53;5054900;28;20397;-78
2023/04/24 09:55:31;;;;;;;3.22;2.10;;;8.60;99.90;;;-144.05;80.57;56925.28;5054273;28;20029;-78
2023/04/24 09:58:04;;;;;;;4.13;2.10;;;8.70;99.90;;;-144.05;80.04;56912.56;5055545;28;20029;-78
2023/04/24 10:00:33;;;;;;;3.28;2.10;;;8.70;99.90;;;-144.05;79.47;56927.41;5055946;28;20028;-76
2023/04/24 10:03:05;;;;;;;3.25;1.67;;;8.80;99.90;;;-144.05;79.31;56921.06;5054564;28;20029;-76
2023/04/24 10:05:35;;;;;;;2.47;1.77;;;8.80;99.90;;;-144.05;79.17;56914.69;5055904;28;20025;-78